Terminal Aerodrome Forecast
Issued by NWS State College, PA

Home | Current Version | Previous Version | Text Only | Print | Product List | Glossary On
Versions: 1 2 3 4 5 6 7 8 9 10 11 12 13 14 15 16 17 18 19 20 21 22 23 24 25 26 27 28 29 30 31 32
000
FTUS41 KCTP 171142
TAFIPT
TAF
KIPT 171142Z 1712/1812 10003KT P6SM SCT250
     FM171600 11008KT P6SM BKN250
     FM171800 12010G17KT P6SM FEW040 BKN250
     FM172230 12006KT P6SM SCT250
     FM180700 12003KT P6SM BKN040=

USA.gov is the U.S. government's official web portal to all federal, state and local government web resources and services.